Newfields, New Hampshire
Current Conditions -  °F | °C
As of 11:58 PM on Friday 28 Nov 2014 (Local Time) from KPSM Reporting Station
Few Clouds Few Clouds  
Wind Chill: 14°   Ceiling: Unl
Heat Index: 23°   Visibility: 10mi
Dew Point: 15°   Wind: 7mph
Humidity: 73%   Direction: 270°W
Pressure: 30.18"   Gusts: NA
Location:  43.04°N, 70.94°W
Report Text: KPSM 290458Z 27006KT 10SM FEW040 M05/M09 A3018 RMK AO2A SLP225 T10521094 410011052
Loading
Personal Weather Stations






























Interactive Weather Map New forecast layout! Learn more

10-Day Weather Forecast

Advertisements
Track Severe Weather on mobile